»·PEaware :: N196DB L52-L88

N196DB :: L52-L88

FLIGHT INFORMATION

Flight Status: Arrived
Operator: Privately registered:
United States
More flights under this callsign
Pilot: Darrin B. (36955)
Aircraft: Cub Crafters X Cub
(CC19)
More flights by this aircraft type
Origin: L52 Oceano Co
United States
Destination: L88 New Cuyama
United States
More flights between these airports :: More routes between these airports
Route: POZOE
File this flight plan on PilotEdge
Remarks:
Altitude:
(Current/Filed)
5,500ft
Speed:
(Current/Filed)
122kts
Departed: 27-Oct-21 04:13 PM
Arrived: 27-Oct-21 04:53 PM
Distance/Time
Traveled:
47nm/0:40
Distance/Time
To Go:
Arrived

Flight Plot

Page will automatically refresh every two minutes.


Map Options




Map Legend


Flown Route
Filed Route
Departure Airport
Arrival Airport
Navaid (VOR, NDB)
Fix

Horizontal Profiles

Position Reports

Time Latitude Longitude Heading Altitude Ground
Speed
27-Oct-21 16:06 35.102161 -120.622306 16 19ft 0kts
27-Oct-21 16:07 35.102161 -120.622306 16 19ft 0kts
27-Oct-21 16:08 35.102161 -120.622306 16 19ft 0kts
27-Oct-21 16:09 35.102133 -120.622247 159 19ft 7kts
27-Oct-21 16:10 35.100604 -120.621504 120 20ft 18kts
27-Oct-21 16:11 35.099771 -120.619289 9 17ft 6kts
27-Oct-21 16:12 35.106399 -120.633411 296 596ft 63kts
27-Oct-21 16:13 35.099316 -120.647259 158 1406ft 78kts
27-Oct-21 16:14 35.087300 -120.626346 94 2130ft 77kts
27-Oct-21 16:15 35.085909 -120.601106 66 2876ft 72kts
27-Oct-21 16:16 35.094696 -120.579986 52 3595ft 69kts
27-Oct-21 16:17 35.104980 -120.560533 55 4303ft 66kts
27-Oct-21 16:18 35.116787 -120.543895 30 4832ft 67kts
27-Oct-21 16:19 35.127834 -120.526243 65 5334ft 76kts
27-Oct-21 16:20 35.131010 -120.496502 71 5799ft 95kts
27-Oct-21 16:21 35.134736 -120.463594 77 5623ft 93kts
27-Oct-21 16:22 35.137389 -120.433617 74 5544ft 83kts
27-Oct-21 16:23 35.124593 -120.407424 95 5605ft 92kts
27-Oct-21 16:24 35.130624 -120.380498 41 5554ft 78kts
27-Oct-21 16:25 35.146681 -120.364045 34 5584ft 76kts
27-Oct-21 16:26 35.153175 -120.338450 84 5571ft 87kts
27-Oct-21 16:27 35.152574 -120.311538 74 5505ft 71kts
27-Oct-21 16:28 35.155761 -120.284556 76 5580ft 86kts
27-Oct-21 16:29 35.154077 -120.254656 89 5585ft 91kts
27-Oct-21 16:30 35.147439 -120.225065 101 5581ft 91kts
27-Oct-21 16:31 35.136501 -120.195328 104 5570ft 96kts
27-Oct-21 16:32 35.125256 -120.165634 114 5585ft 99kts
27-Oct-21 16:33 35.109517 -120.138449 122 5540ft 92kts
27-Oct-21 16:34 35.102039 -120.110447 105 5594ft 96kts
27-Oct-21 16:35 35.090992 -120.081804 107 5553ft 89kts
27-Oct-21 16:36 35.080079 -120.052862 108 5614ft 101kts
27-Oct-21 16:37 35.060090 -120.027431 142 5579ft 108kts
27-Oct-21 16:38 35.033661 -120.009271 150 5574ft 110kts
27-Oct-21 16:39 35.007041 -119.991458 137 5569ft 107kts
27-Oct-21 16:40 34.985053 -119.967136 129 5571ft 105kts
27-Oct-21 16:41 34.966470 -119.940084 118 5546ft 99kts
27-Oct-21 16:42 34.953064 -119.911072 113 5590ft 100kts
27-Oct-21 16:43 34.940930 -119.880249 110 5576ft 100kts
27-Oct-21 16:44 34.928881 -119.850061 114 5588ft 100kts
27-Oct-21 16:45 34.916017 -119.819854 114 5573ft 99kts
27-Oct-21 16:46 34.906416 -119.789147 100 5580ft 96kts
27-Oct-21 16:47 34.910270 -119.757366 69 5548ft 97kts
27-Oct-21 16:48 34.918313 -119.727093 73 5298ft 90kts
27-Oct-21 16:49 34.929325 -119.698197 60 4383ft 95kts
27-Oct-21 16:50 34.925099 -119.671597 81 3528ft 68kts
27-Oct-21 16:51 34.935875 -119.675751 296 2434ft 74kts
27-Oct-21 16:52 34.941365 -119.689019 296 2163ft 22kts
27-Oct-21 16:53 34.943329 -119.691209 6 2150ft 0kts
27-Oct-21 16:54 34.943329 -119.691209 6 2150ft 0kts
27-Oct-21 16:55 34.943329 -119.691209 6 2150ft 0kts

Navigation Log

Ident Type
Flight plan parsing failed, navigation log unavailable